Time;durP1;ratioP1;P1;durP2;ratioP2;P2;SDS_P1;SDS_P2;PMS_P1;PMS_P2;Temp;Humidity;BMP_temperature;BMP_pressure;BME280_temperature;BME280_humidity;BME280_pressure;Samples;Min_cycle;Max_cycle;Signal;HPM_P1;HPM_P2
2023/05/31 00:01:12;;;;;;;3.75;3.00;;;;;;;;;;5072311;28;20463;-80
2023/05/31 00:03:43;;;;;;;3.33;3.03;;;;;;;;;;5072181;28;20387;-80
2023/05/31 00:06:09;;;;;;;3.95;3.00;;;;;;;;;;5072105;28;20775;-80
2023/05/31 00:08:35;;;;;;;3.30;3.00;;;;;;;;;;5071695;28;20889;-80
2023/05/31 00:11:01;;;;;;;3.67;3.20;;;;;;;;;;5071898;28;20426;-80
2023/05/31 00:13:27;;;;;;;5.43;2.87;;;;;;;;;;5071932;28;20403;-80
2023/05/31 00:15:53;;;;;;;4.10;3.35;;;;;;;;;;5071405;28;20402;-80
2023/05/31 00:18:19;;;;;;;4.00;3.13;;;;;;;;;;5071781;28;20407;-80
2023/05/31 00:20:45;;;;;;;3.33;3.03;;;;;;;;;;5071510;28;20425;-80
2023/05/31 00:23:11;;;;;;;3.75;3.35;;;;;;;;;;5070820;28;20387;-80
2023/05/31 00:25:37;;;;;;;4.03;3.63;;;;;;;;;;5071335;28;20384;-80
2023/05/31 00:28:03;;;;;;;3.65;2.95;;;;;;;;;;5071271;28;20966;-80
2023/05/31 00:30:29;;;;;;;4.37;3.47;;;;;;;;;;5071183;28;20733;-80
2023/05/31 00:32:55;;;;;;;3.80;3.35;;;;;;;;;;5071414;28;20380;-80
2023/05/31 00:35:21;;;;;;;3.42;3.13;;;;;;;;;;5071671;28;20899;-80
2023/05/31 00:37:47;;;;;;;3.80;3.25;;;;;;;;;;5070985;28;20530;-80
2023/05/31 00:40:13;;;;;;;4.53;3.53;;;;;;;;;;5070164;28;20458;-80
2023/05/31 00:42:39;;;;;;;3.85;3.50;;;;;;;;;;5064070;28;20872;-80
2023/05/31 00:45:08;;;;;;;4.15;3.30;;;;;;;;;;5071388;28;20376;-80
2023/05/31 00:47:38;;;;;;;4.00;3.35;;;;;;;;;;5071468;28;20872;-80
2023/05/31 00:50:04;;;;;;;4.38;3.22;;;;;;;;;;5071194;28;20387;-80
2023/05/31 00:52:31;;;;;;;4.20;2.97;;;;;;;;;;5071403;28;20860;-80
2023/05/31 00:54:57;;;;;;;4.88;3.20;;;;;;;;;;5071246;28;20876;-80
2023/05/31 00:57:23;;;;;;;4.83;3.20;;;;;;;;;;5071178;28;20403;-80
2023/05/31 00:59:49;;;;;;;3.80;3.20;;;;;;;;;;5070807;28;20433;-80
2023/05/31 01:02:18;;;;;;;4.65;3.58;;;;;;;;;;5070391;28;20741;-80
2023/05/31 01:04:44;;;;;;;3.55;3.25;;;;;;;;;;5071264;28;20447;-80
2023/05/31 01:07:10;;;;;;;4.37;3.47;;;;;;;;;;5071083;28;20483;-80
2023/05/31 01:09:42;;;;;;;4.65;3.72;;;;;;;;;;5071031;28;20407;-80
2023/05/31 01:12:30;;;;;;;4.47;3.60;;;;;;;;;;5071130;28;20375;-80
2023/05/31 01:15:17;;;;;;;4.47;2.88;;;;;;;;;;5071082;28;20384;-80
2023/05/31 01:18:09;;;;;;;4.60;3.63;;;;;;;;;;5070884;28;20891;-80
2023/05/31 01:20:35;;;;;;;4.38;3.65;;;;;;;;;;5070919;28;20388;-79
2023/05/31 01:23:39;;;;;;;4.17;3.37;;;;;;;;;;5070960;28;20380;-80
2023/05/31 01:26:18;;;;;;;3.95;3.05;;;;;;;;;;4969192;28;20397;-80
2023/05/31 01:28:47;;;;;;;3.63;3.00;;;;;;;;;;4969842;28;20475;-80
2023/05/31 01:31:14;;;;;;;4.72;3.35;;;;;;;;;;5027740;28;20387;-80
2023/05/31 01:33:41;;;;;;;4.25;3.20;;;;;;;;;;5070710;28;20398;-80
2023/05/31 01:36:07;;;;;;;3.38;3.08;;;;;;;;;;5070450;28;20395;-80
2023/05/31 01:38:33;;;;;;;4.45;3.40;;;;;;;;;;5069165;28;20398;-80
2023/05/31 01:41:00;;;;;;;4.80;3.10;;;;;;;;;;5063370;28;21205;-80
2023/05/31 01:43:27;;;;;;;4.00;3.60;;;;;;;;;;5069770;28;20376;-80
2023/05/31 01:45:54;;;;;;;3.60;3.28;;;;;;;;;;5070896;28;20412;-80
2023/05/31 01:48:20;;;;;;;3.63;3.33;;;;;;;;;;5070699;28;20392;-80
2023/05/31 01:50:46;;;;;;;5.13;3.22;;;;;;;;;;5070526;28;20412;-80
2023/05/31 01:53:12;;;;;;;3.90;3.25;;;;;;;;;;5070708;28;20411;-80
2023/05/31 01:55:38;;;;;;;3.88;3.30;;;;;;;;;;5070664;28;20380;-80
2023/05/31 01:58:05;;;;;;;3.47;3.10;;;;;;;;;;5070681;28;20411;-80
2023/05/31 02:00:31;;;;;;;6.40;3.40;;;;;;;;;;5070581;28;20383;-80
2023/05/31 02:02:58;;;;;;;3.60;3.25;;;;;;;;;;5070771;28;20551;-80
2023/05/31 02:05:24;;;;;;;3.83;3.37;;;;;;;;;;5070729;28;20368;-80
2023/05/31 02:07:50;;;;;;;4.57;3.22;;;;;;;;;;5070528;28;20431;-80
2023/05/31 02:10:16;;;;;;;3.70;3.08;;;;;;;;;;5070351;28;20403;-81
2023/05/31 02:12:42;;;;;;;3.17;2.88;;;;;;;;;;5070595;28;20493;-80
2023/05/31 02:15:12;;;;;;;3.95;3.40;;;;;;;;;;5073967;28;20462;-80
2023/05/31 02:17:42;;;;;;;3.20;2.90;;;;;;;;;;5073989;28;20406;-80
2023/05/31 02:20:10;;;;;;;3.33;2.65;;;;;;;;;;5074155;28;20875;-80
2023/05/31 02:22:36;;;;;;;3.53;3.05;;;;;;;;;;5074071;28;20392;-81
2023/05/31 02:25:02;;;;;;;5.97;3.45;;;;;;;;;;5074191;28;20918;-80
2023/05/31 02:27:29;;;;;;;3.97;3.28;;;;;;;;;;5073782;28;20816;-80
2023/05/31 02:29:55;;;;;;;6.07;3.20;;;;;;;;;;5073785;28;20383;-80
2023/05/31 02:32:21;;;;;;;4.07;3.30;;;;;;;;;;5060781;28;20404;-81
2023/05/31 02:34:47;;;;;;;3.40;3.10;;;;;;;;;;5048359;28;20403;-81
2023/05/31 02:37:13;;;;;;;4.75;3.10;;;;;;;;;;5056154;28;20430;-81
2023/05/31 02:39:39;;;;;;;6.55;3.13;;;;;;;;;;5070982;28;20380;-81
2023/05/31 02:42:06;;;;;;;6.75;3.30;;;;;;;;;;5073211;28;20387;-81
2023/05/31 02:44:32;;;;;;;4.73;3.03;;;;;;;;;;5062471;28;20384;-81
2023/05/31 02:46:58;;;;;;;4.13;3.20;;;;;;;;;;5062990;28;20381;-81
2023/05/31 02:49:24;;;;;;;4.68;3.17;;;;;;;;;;5054189;28;20381;-81
2023/05/31 02:51:50;;;;;;;4.45;3.08;;;;;;;;;;5058061;28;20380;-81
2023/05/31 02:54:16;;;;;;;4.03;3.00;;;;;;;;;;5065488;28;20383;-81
2023/05/31 02:56:42;;;;;;;2.90;2.63;;;;;;;;;;5073278;28;20379;-81
2023/05/31 02:59:08;;;;;;;4.43;3.33;;;;;;;;;;5063258;28;20408;-81
2023/05/31 03:01:34;;;;;;;4.03;2.78;;;;;;;;;;5069602;28;20862;-80
2023/05/31 03:04:00;;;;;;;3.95;2.88;;;;;;;;;;5064583;28;20387;-80
2023/05/31 03:06:26;;;;;;;3.78;3.08;;;;;;;;;;5070224;28;20388;-81
2023/05/31 03:08:52;;;;;;;2.97;2.70;;;;;;;;;;5068861;28;20430;-81
2023/05/31 03:11:18;;;;;;;4.28;2.80;;;;;;;;;;5070254;28;20933;-82
2023/05/31 03:13:44;;;;;;;3.47;2.90;;;;;;;;;;5070093;28;20388;-80
2023/05/31 03:16:10;;;;;;;4.18;2.65;;;;;;;;;;5069289;28;20462;-81
2023/05/31 03:18:36;;;;;;;3.72;2.70;;;;;;;;;;5069197;28;20903;-80
2023/05/31 03:21:02;;;;;;;3.50;2.90;;;;;;;;;;5064710;28;20417;-81
2023/05/31 03:23:28;;;;;;;3.60;2.67;;;;;;;;;;5066644;28;20832;-81
2023/05/31 03:25:55;;;;;;;4.30;2.72;;;;;;;;;;5065177;28;21023;-81
2023/05/31 03:28:21;;;;;;;4.57;2.83;;;;;;;;;;5052661;28;20889;-81
2023/05/31 03:30:47;;;;;;;3.20;2.55;;;;;;;;;;5065735;28;20470;-81
2023/05/31 03:33:13;;;;;;;3.00;2.15;;;;;;;;;;5072990;28;20463;-81
2023/05/31 03:35:40;;;;;;;3.78;2.47;;;;;;;;;;5072919;28;20470;-81
2023/05/31 03:38:06;;;;;;;2.88;2.30;;;;;;;;;;5072632;28;20399;-81
2023/05/31 03:40:32;;;;;;;2.90;2.30;;;;;;;;;;5068938;28;20742;-81
2023/05/31 03:42:58;;;;;;;3.23;2.37;;;;;;;;;;5068159;28;20476;-81
2023/05/31 03:45:24;;;;;;;4.60;2.50;;;;;;;;;;5071274;28;20773;-80
2023/05/31 03:47:50;;;;;;;3.72;2.50;;;;;;;;;;5072299;28;20458;-81
2023/05/31 03:50:16;;;;;;;3.33;2.45;;;;;;;;;;5059296;28;20471;-81
2023/05/31 03:52:42;;;;;;;3.22;2.25;;;;;;;;;;5072231;28;20857;-81
2023/05/31 03:55:08;;;;;;;4.20;2.80;;;;;;;;;;5072008;28;20411;-81
2023/05/31 03:57:34;;;;;;;3.78;2.33;;;;;;;;;;5071912;28;20768;-81
2023/05/31 04:00:00;;;;;;;3.38;2.80;;;;;;;;;;5072248;28;20466;-81
2023/05/31 04:02:26;;;;;;;2.55;2.35;;;;;;;;;;5069151;28;20514;-80
2023/05/31 04:04:52;;;;;;;3.07;2.30;;;;;;;;;;5061756;28;20372;-81
2023/05/31 04:07:18;;;;;;;5.43;2.53;;;;;;;;;;5069431;28;20777;-80
2023/05/31 04:09:44;;;;;;;2.72;2.42;;;;;;;;;;5052329;28;20452;-81
2023/05/31 04:12:10;;;;;;;3.03;2.60;;;;;;;;;;5054280;28;20388;-81
2023/05/31 04:14:36;;;;;;;3.08;2.40;;;;;;;;;;5056675;28;20849;-81
2023/05/31 04:17:02;;;;;;;2.67;2.17;;;;;;;;;;5064313;28;20414;-81
2023/05/31 04:19:28;;;;;;;3.47;2.20;;;;;;;;;;5071483;28;20450;-81
2023/05/31 04:21:54;;;;;;;2.58;2.22;;;;;;;;;;5070630;28;20368;-80
2023/05/31 04:24:20;;;;;;;2.55;2.35;;;;;;;;;;5066664;28;20435;-80
2023/05/31 04:26:46;;;;;;;2.70;2.20;;;;;;;;;;5064803;28;20420;-80
2023/05/31 04:29:13;;;;;;;4.07;2.38;;;;;;;;;;5059257;28;20403;-80
2023/05/31 04:31:39;;;;;;;4.40;2.40;;;;;;;;;;5061604;28;20397;-80
2023/05/31 04:34:06;;;;;;;3.65;2.50;;;;;;;;;;5052023;28;20435;-80
2023/05/31 04:36:36;;;;;;;4.45;2.47;;;;;;;;;;5051617;28;20393;-80
2023/05/31 04:39:05;;;;;;;4.72;2.70;;;;;;;;;;5059523;28;20474;-80
2023/05/31 04:41:31;;;;;;;4.50;2.50;;;;;;;;;;5062619;28;20380;-80
2023/05/31 04:43:57;;;;;;;4.65;2.90;;;;;;;;;;5070710;28;20718;-80
2023/05/31 04:46:24;;;;;;;6.20;2.22;;;;;;;;;;5071458;28;20429;-80
2023/05/31 04:48:51;;;;;;;2.33;2.13;;;;;;;;;;5071466;28;20384;-80
2023/05/31 04:51:17;;;;;;;3.08;2.20;;;;;;;;;;5062877;28;20395;-80
2023/05/31 04:53:44;;;;;;;3.63;2.33;;;;;;;;;;5068775;28;20375;-80
2023/05/31 04:56:12;;;;;;;5.07;2.50;;;;;;;;;;5065760;28;20965;-80
2023/05/31 04:58:38;;;;;;;4.13;2.35;;;;;;;;;;5069689;28;20411;-80
2023/05/31 05:01:04;;;;;;;4.80;2.40;;;;;;;;;;5052702;28;20464;-80
2023/05/31 05:03:31;;;;;;;6.40;2.33;;;;;;;;;;5070561;28;20386;-79
2023/05/31 05:05:57;;;;;;;3.75;2.40;;;;;;;;;;5066953;28;20800;-80
2023/05/31 05:08:23;;;;;;;2.97;2.03;;;;;;;;;;5070160;28;20395;-81
2023/05/31 05:10:49;;;;;;;4.37;2.60;;;;;;;;;;5069990;28;20491;-81
2023/05/31 05:13:18;;;;;;;3.17;2.20;;;;;;;;;;5064529;28;20391;-80
2023/05/31 05:15:45;;;;;;;3.33;2.53;;;;;;;;;;5064741;28;20460;-81
2023/05/31 05:18:11;;;;;;;2.72;2.17;;;;;;;;;;5064283;28;20407;-81
2023/05/31 05:20:37;;;;;;;4.15;2.10;;;;;;;;;;5046336;28;20387;-82
2023/05/31 05:23:06;;;;;;;3.20;2.30;;;;;;;;;;5058842;28;20415;-81
2023/05/31 05:25:32;;;;;;;3.28;2.10;;;;;;;;;;5056318;28;20729;-81
2023/05/31 05:27:58;;;;;;;2.90;2.25;;;;;;;;;;5062906;28;20505;-82
2023/05/31 05:30:25;;;;;;;4.80;2.30;;;;;;;;;;5061467;28;20505;-82
2023/05/31 05:32:51;;;;;;;4.22;2.30;;;;;;;;;;5071199;28;20522;-81
2023/05/31 05:35:17;;;;;;;3.23;2.20;;;;;;;;;;5058227;28;20476;-83
2023/05/31 05:37:43;;;;;;;3.50;2.30;;;;;;;;;;5055744;28;20408;-83
2023/05/31 05:40:09;;;;;;;2.80;2.20;;;;;;;;;;5057077;28;20440;-83
2023/05/31 05:42:38;;;;;;;2.80;2.20;;;;;;;;;;5065664;28;20789;-83
2023/05/31 05:45:07;;;;;;;3.20;2.30;;;;;;;;;;5069977;28;20379;-82
2023/05/31 05:47:34;;;;;;;3.53;2.20;;;;;;;;;;5070950;28;20418;-83
2023/05/31 05:50:00;;;;;;;5.28;2.30;;;;;;;;;;5074651;28;20390;-83
2023/05/31 05:52:27;;;;;;;6.00;2.75;;;;;;;;;;5074395;28;20454;-83
2023/05/31 05:54:53;;;;;;;5.53;2.50;;;;;;;;;;5067066;28;20381;-83
2023/05/31 05:57:19;;;;;;;3.15;2.20;;;;;;;;;;5074765;28;20433;-82
2023/05/31 05:59:46;;;;;;;4.47;2.10;;;;;;;;;;5074153;28;20820;-82
2023/05/31 06:02:12;;;;;;;2.97;2.08;;;;;;;;;;5063094;28;20923;-83
2023/05/31 06:04:38;;;;;;;3.10;2.38;;;;;;;;;;5073844;28;20384;-83
2023/05/31 06:07:04;;;;;;;3.43;2.20;;;;;;;;;;5072199;28;20464;-83
2023/05/31 06:09:30;;;;;;;4.18;2.35;;;;;;;;;;5073779;28;20412;-83
2023/05/31 06:11:56;;;;;;;5.80;2.40;;;;;;;;;;5074431;28;20405;-82
2023/05/31 06:14:22;;;;;;;3.35;2.17;;;;;;;;;;5074173;28;20913;-83
2023/05/31 06:16:48;;;;;;;2.78;2.20;;;;;;;;;;5074244;28;20387;-83
2023/05/31 06:19:13;;;;;;;4.40;2.70;;;;;;;;;;5074130;28;20382;-81
2023/05/31 06:21:39;;;;;;;3.43;2.43;;;;;;;;;;5073907;28;20372;-84
2023/05/31 06:24:05;;;;;;;4.28;2.40;;;;;;;;;;5074005;28;20481;-83
2023/05/31 06:26:35;;;;;;;4.32;2.40;;;;;;;;;;5074194;28;20372;-82
2023/05/31 06:29:01;;;;;;;5.07;2.30;;;;;;;;;;5074085;28;20407;-83
2023/05/31 06:31:27;;;;;;;4.05;2.55;;;;;;;;;;5073767;28;20363;-82
2023/05/31 06:33:53;;;;;;;3.85;2.60;;;;;;;;;;5073814;28;20376;-81
2023/05/31 06:36:19;;;;;;;3.25;2.28;;;;;;;;;;5072029;28;20423;-83
2023/05/31 06:38:46;;;;;;;3.60;2.60;;;;;;;;;;5067607;28;20467;-82
2023/05/31 06:41:12;;;;;;;4.35;2.40;;;;;;;;;;5073789;28;20433;-81
2023/05/31 06:43:38;;;;;;;3.25;2.30;;;;;;;;;;5073432;28;20471;-82
2023/05/31 06:46:07;;;;;;;5.28;2.55;;;;;;;;;;5073689;28;20454;-82
2023/05/31 06:48:33;;;;;;;5.35;2.63;;;;;;;;;;5073595;28;20425;-81
2023/05/31 06:50:59;;;;;;;2.95;2.35;;;;;;;;;;5073529;28;20462;-81
2023/05/31 06:53:25;;;;;;;4.38;2.42;;;;;;;;;;5073536;28;20779;-82
2023/05/31 06:55:51;;;;;;;8.38;2.80;;;;;;;;;;5073606;28;20372;-82
2023/05/31 06:58:17;;;;;;;5.50;2.70;;;;;;;;;;5073246;28;20442;-81
2023/05/31 07:00:43;;;;;;;3.50;2.30;;;;;;;;;;5072325;28;20384;-82
2023/05/31 07:03:09;;;;;;;5.20;2.50;;;;;;;;;;5073705;28;20383;-82
2023/05/31 07:05:35;;;;;;;5.57;2.50;;;;;;;;;;5070264;28;20437;-81
2023/05/31 07:08:01;;;;;;;4.78;2.60;;;;;;;;;;5073488;28;20478;-82
2023/05/31 07:10:28;;;;;;;4.22;2.22;;;;;;;;;;5072869;28;20780;-81
2023/05/31 07:12:54;;;;;;;4.77;2.20;;;;;;;;;;5072972;28;20433;-80
2023/05/31 07:15:20;;;;;;;5.57;2.63;;;;;;;;;;5068349;28;20407;-82
2023/05/31 07:17:46;;;;;;;3.67;2.40;;;;;;;;;;5071430;28;20488;-82
2023/05/31 07:20:12;;;;;;;5.90;2.60;;;;;;;;;;5066852;28;20446;-82
2023/05/31 07:22:38;;;;;;;6.35;2.70;;;;;;;;;;5072699;28;20806;-81
2023/05/31 07:25:05;;;;;;;5.30;2.83;;;;;;;;;;5071442;28;20414;-82
2023/05/31 07:27:31;;;;;;;3.72;2.67;;;;;;;;;;5072915;28;20895;-82
2023/05/31 07:29:57;;;;;;;3.55;2.70;;;;;;;;;;5072896;28;20437;-81
2023/05/31 07:32:23;;;;;;;3.45;2.50;;;;;;;;;;5072858;28;20467;-81
2023/05/31 07:34:49;;;;;;;3.95;2.42;;;;;;;;;;5072807;28;20386;-82
2023/05/31 07:37:15;;;;;;;5.03;2.40;;;;;;;;;;5072680;28;20408;-82
2023/05/31 07:39:41;;;;;;;3.20;2.30;;;;;;;;;;5072528;28;20792;-82
2023/05/31 07:42:07;;;;;;;6.20;2.90;;;;;;;;;;5072720;28;20454;-82
2023/05/31 07:44:33;;;;;;;4.35;2.83;;;;;;;;;;5072529;28;20918;-82
2023/05/31 07:47:00;;;;;;;4.13;2.47;;;;;;;;;;5072594;28;20376;-83
2023/05/31 07:49:26;;;;;;;2.95;2.20;;;;;;;;;;5071839;28;20459;-82
2023/05/31 07:51:52;;;;;;;3.23;2.40;;;;;;;;;;5067443;28;20555;-83
2023/05/31 07:54:18;;;;;;;5.55;2.45;;;;;;;;;;5072352;28;20372;-83
2023/05/31 07:56:44;;;;;;;3.97;2.70;;;;;;;;;;5072325;28;20368;-83
2023/05/31 07:59:11;;;;;;;3.90;2.60;;;;;;;;;;5071816;28;20757;-83
2023/05/31 08:01:38;;;;;;;3.08;2.40;;;;;;;;;;5071565;28;20398;-83
2023/05/31 08:04:07;;;;;;;5.47;2.58;;;;;;;;;;5072191;28;20372;-83
2023/05/31 08:06:33;;;;;;;5.63;2.60;;;;;;;;;;5072121;28;20394;-82
2023/05/31 08:09:00;;;;;;;3.67;2.25;;;;;;;;;;5053694;28;20430;-82
2023/05/31 08:11:26;;;;;;;5.38;3.22;;;;;;;;;;5071803;28;20380;-82
2023/05/31 08:13:52;;;;;;;3.33;2.42;;;;;;;;;;5071359;28;20419;-82
2023/05/31 08:16:18;;;;;;;4.00;2.60;;;;;;;;;;5071895;28;20414;-82
2023/05/31 08:18:45;;;;;;;3.30;2.30;;;;;;;;;;5071703;28;20399;-82
2023/05/31 08:21:11;;;;;;;3.80;2.50;;;;;;;;;;5071892;28;20476;-82
2023/05/31 08:23:37;;;;;;;3.63;2.40;;;;;;;;;;5071884;28;20414;-82
2023/05/31 08:26:03;;;;;;;3.35;2.70;;;;;;;;;;5071750;28;20402;-83
2023/05/31 08:28:32;;;;;;;5.43;3.30;;;;;;;;;;5053726;28;20741;-83
2023/05/31 08:30:58;;;;;;;4.35;2.90;;;;;;;;;;5071607;28;20388;-82
2023/05/31 08:33:29;;;;;;;5.93;2.80;;;;;;;;;;5071823;28;20394;-80
2023/05/31 08:35:59;;;;;;;4.70;2.67;;;;;;;;;;5071615;28;20384;-80
2023/05/31 08:38:25;;;;;;;5.50;2.70;;;;;;;;;;5071446;28;20411;-79
2023/05/31 08:40:51;;;;;;;3.17;2.45;;;;;;;;;;5071249;28;20375;-79
2023/05/31 08:43:20;;;;;;;3.63;2.40;;;;;;;;;;5071378;28;20849;-79
2023/05/31 08:45:48;;;;;;;3.33;2.50;;;;;;;;;;5071527;28;20403;-79
2023/05/31 08:48:34;;;;;;;4.18;2.50;;;;;;;;;;5071398;28;20379;-79
2023/05/31 08:51:01;;;;;;;4.32;2.70;;;;;;;;;;5063595;28;20933;-80
2023/05/31 08:53:28;;;;;;;4.33;2.60;;;;;;;;;;5070524;28;20463;-82
2023/05/31 08:55:57;;;;;;;8.30;3.00;;;;;;;;;;5071403;28;20433;-85
2023/05/31 08:58:24;;;;;;;4.25;2.78;;;;;;;;;;5069385;28;20420;-84
2023/05/31 09:00:50;;;;;;;5.63;2.88;;;;;;;;;;5067607;28;20498;-83
2023/05/31 09:03:16;;;;;;;4.63;2.50;;;;;;;;;;5067168;28;20384;-83
2023/05/31 09:05:42;;;;;;;3.78;2.67;;;;;;;;;;5071212;28;20403;-83
2023/05/31 09:08:08;;;;;;;3.33;2.20;;;;;;;;;;5070456;28;20376;-83
2023/05/31 09:10:34;;;;;;;3.67;2.65;;;;;;;;;;5048349;28;20413;-83
2023/05/31 09:13:00;;;;;;;5.80;2.60;;;;;;;;;;5071201;28;20392;-84
2023/05/31 09:15:28;;;;;;;3.25;2.30;;;;;;;;;;5083605;28;20389;-83
2023/05/31 09:17:56;;;;;;;4.47;2.70;;;;;;;;;;5070970;28;20483;-84
2023/05/31 09:20:31;;;;;;;3.10;2.35;;;;;;;;;;5068991;28;20388;-85
2023/05/31 09:22:57;;;;;;;2.42;2.20;;;;;;;;;;5064753;28;20647;-84
2023/05/31 09:25:22;;;;;;;3.83;2.63;;;;;;;;;;5072550;28;20724;-84
2023/05/31 09:27:48;;;;;;;3.50;2.30;;;;;;;;;;5072364;28;20380;-85
2023/05/31 09:30:15;;;;;;;4.72;2.53;;;;;;;;;;5069287;28;20386;-84
2023/05/31 09:32:41;;;;;;;2.90;2.60;;;;;;;;;;5069877;28;20379;-84
2023/05/31 09:35:16;;;;;;;2.88;2.50;;;;;;;;;;5066993;28;20431;-85
2023/05/31 09:37:51;;;;;;;3.95;2.40;;;;;;;;;;5062387;28;20415;-83
2023/05/31 09:40:24;;;;;;;4.32;2.65;;;;;;;;;;5070647;28;20387;-83
2023/05/31 09:42:51;;;;;;;3.17;2.78;;;;;;;;;;5070385;28;20383;-83
2023/05/31 09:45:18;;;;;;;3.40;2.50;;;;;;;;;;5057436;28;20387;-83
2023/05/31 09:47:44;;;;;;;3.20;2.70;;;;;;;;;;5069984;28;20384;-84
2023/05/31 09:50:11;;;;;;;4.00;2.50;;;;;;;;;;5069684;28;20783;-85
2023/05/31 09:52:40;;;;;;;5.28;2.60;;;;;;;;;;5062445;28;20501;-85
2023/05/31 09:55:07;;;;;;;4.53;2.65;;;;;;;;;;5061095;28;20923;-84
2023/05/31 09:57:40;;;;;;;5.10;2.83;;;;;;;;;;5059127;28;20498;-83
2023/05/31 10:00:15;;;;;;;5.43;2.50;;;;;;;;;;5063949;28;20404;-84
2023/05/31 10:02:44;;;;;;;4.47;2.70;;;;;;;;;;5066466;28;20749;-86
2023/05/31 10:05:11;;;;;;;6.40;2.90;;;;;;;;;;5068212;28;20384;-84
2023/05/31 10:07:38;;;;;;;3.75;2.63;;;;;;;;;;5052391;28;21074;-86
2023/05/31 10:10:05;;;;;;;4.93;2.70;;;;;;;;;;5069624;28;20439;-85
2023/05/31 10:12:32;;;;;;;4.60;2.60;;;;;;;;;;5051369;28;20920;-86
2023/05/31 10:15:04;;;;;;;4.07;2.45;;;;;;;;;;5069836;28;20388;-85
2023/05/31 10:17:34;;;;;;;2.92;2.40;;;;;;;;;;5070043;28;20419;-86
2023/05/31 10:20:06;;;;;;;5.30;2.83;;;;;;;;;;5069340;28;20880;-87
2023/05/31 10:22:33;;;;;;;4.80;2.67;;;;;;;;;;5076912;28;20390;-82
2023/05/31 10:25:11;;;;;;;4.68;2.63;;;;;;;;;;5068477;28;20411;-84
2023/05/31 10:27:42;;;;;;;6.60;2.75;;;;;;;;;;5069848;28;20372;-84
2023/05/31 10:30:10;;;;;;;5.88;2.95;;;;;;;;;;5068080;28;20816;-84
2023/05/31 10:32:43;;;;;;;4.63;2.33;;;;;;;;;;5071797;28;20392;-84
2023/05/31 10:35:09;;;;;;;4.45;3.33;;;;;;;;;;5049126;28;20435;-82
2023/05/31 10:37:36;;;;;;;2.90;2.50;;;;;;;;;;5075883;28;20439;-84
2023/05/31 10:40:07;;;;;;;4.78;2.47;;;;;;;;;;5076267;28;20392;-84
2023/05/31 10:42:50;;;;;;;6.22;2.78;;;;;;;;;;5072716;28;20372;-83
2023/05/31 10:45:30;;;;;;;4.55;2.58;;;;;;;;;;5048052;28;20527;-83
2023/05/31 10:48:15;;;;;;;5.20;3.10;;;;;;;;;;5054236;28;20399;-83
2023/05/31 10:50:53;;;;;;;3.97;2.60;;;;;;;;;;5068275;28;20937;-83
2023/05/31 10:53:19;;;;;;;3.77;2.77;;;;;;;;;;5072929;28;20376;-85
2023/05/31 10:55:47;;;;;;;3.53;2.70;;;;;;;;;;5067656;28;20402;-84
2023/05/31 10:58:26;;;;;;;3.50;2.90;;;;;;;;;;5053409;28;20409;-85
2023/05/31 11:00:56;;;;;;;3.13;2.80;;;;;;;;;;5071288;28;20375;-84
2023/05/31 11:03:27;;;;;;;3.92;2.75;;;;;;;;;;5072248;28;20367;-84
2023/05/31 11:06:00;;;;;;;4.80;3.03;;;;;;;;;;5073407;28;20422;-84
2023/05/31 11:08:26;;;;;;;4.65;2.70;;;;;;;;;;5060275;28;20384;-83
2023/05/31 11:10:52;;;;;;;4.30;2.70;;;;;;;;;;5064666;28;20870;-83
2023/05/31 11:13:19;;;;;;;4.13;3.00;;;;;;;;;;5072110;28;20482;-84
2023/05/31 11:15:46;;;;;;;4.20;2.75;;;;;;;;;;5065565;28;20410;-84
2023/05/31 11:18:23;;;;;;;4.00;2.95;;;;;;;;;;5066458;28;20431;-84
2023/05/31 11:20:49;;;;;;;4.75;2.70;;;;;;;;;;5071925;28;20385;-85
2023/05/31 11:23:27;;;;;;;5.43;2.97;;;;;;;;;;5059851;28;20391;-84
2023/05/31 11:26:08;;;;;;;5.68;2.63;;;;;;;;;;5069133;28;20474;-85
2023/05/31 11:28:51;;;;;;;7.22;3.00;;;;;;;;;;5072705;28;20459;-84
2023/05/31 11:31:18;;;;;;;3.80;2.50;;;;;;;;;;5071824;28;20379;-83
2023/05/31 11:33:45;;;;;;;4.63;2.80;;;;;;;;;;5074814;28;20386;-84
2023/05/31 11:36:11;;;;;;;3.83;2.92;;;;;;;;;;5071773;28;20419;-82
2023/05/31 11:38:37;;;;;;;5.77;2.63;;;;;;;;;;5072003;28;20414;-82
2023/05/31 11:41:03;;;;;;;5.40;2.97;;;;;;;;;;5069094;28;20706;-82
2023/05/31 11:43:29;;;;;;;4.22;2.88;;;;;;;;;;5072747;28;20380;-83
2023/05/31 11:45:55;;;;;;;4.88;2.78;;;;;;;;;;5070690;28;20387;-82
2023/05/31 11:48:38;;;;;;;4.57;2.78;;;;;;;;;;5071179;28;20414;-83
2023/05/31 11:51:04;;;;;;;3.90;2.58;;;;;;;;;;5064459;28;20377;-83
2023/05/31 11:53:30;;;;;;;5.55;2.88;;;;;;;;;;5072430;28;20383;-82
2023/05/31 11:55:58;;;;;;;4.50;3.03;;;;;;;;;;5072465;28;20379;-82
2023/05/31 11:58:25;;;;;;;4.15;2.78;;;;;;;;;;5072171;28;20399;-82
2023/05/31 12:00:51;;;;;;;4.27;2.93;;;;;;;;;;5072387;28;20775;-83
2023/05/31 12:03:20;;;;;;;4.30;2.60;;;;;;;;;;5071526;28;20502;-82
2023/05/31 12:05:56;;;;;;;4.13;2.70;;;;;;;;;;5071662;28;20376;-82
2023/05/31 12:08:22;;;;;;;4.70;2.40;;;;;;;;;;5072158;28;20421;-82
2023/05/31 12:10:48;;;;;;;4.32;2.70;;;;;;;;;;5071801;28;20408;-82
2023/05/31 12:13:17;;;;;;;3.15;2.50;;;;;;;;;;5053925;28;20392;-83
2023/05/31 12:15:52;;;;;;;4.32;2.58;;;;;;;;;;5071962;28;20378;-83
2023/05/31 12:18:17;;;;;;;6.20;2.80;;;;;;;;;;5071445;28;20407;-82
2023/05/31 12:20:43;;;;;;;3.10;2.65;;;;;;;;;;5053587;28;20380;-83
2023/05/31 12:23:13;;;;;;;5.32;2.78;;;;;;;;;;5071649;28;20395;-82
2023/05/31 12:25:50;;;;;;;4.18;2.63;;;;;;;;;;5071778;28;20375;-82
2023/05/31 12:28:17;;;;;;;4.13;2.58;;;;;;;;;;5071771;28;20926;-82
2023/05/31 12:30:43;;;;;;;4.63;2.60;;;;;;;;;;5071815;28;20497;-83
2023/05/31 12:33:10;;;;;;;3.03;2.42;;;;;;;;;;5071469;28;20371;-82
2023/05/31 12:35:47;;;;;;;3.38;2.50;;;;;;;;;;5071438;28;20407;-83
2023/05/31 12:38:13;;;;;;;4.18;3.00;;;;;;;;;;5071460;28;20411;-81
2023/05/31 12:40:41;;;;;;;3.65;2.50;;;;;;;;;;5071573;28;20376;-82
2023/05/31 12:43:07;;;;;;;6.80;2.70;;;;;;;;;;5070846;28;20379;-82
2023/05/31 12:45:38;;;;;;;6.15;2.45;;;;;;;;;;5071496;28;20382;-82
2023/05/31 12:48:04;;;;;;;3.38;2.65;;;;;;;;;;5071422;28;20865;-82
2023/05/31 12:50:30;;;;;;;3.87;2.60;;;;;;;;;;5067832;28;20879;-81
2023/05/31 12:52:57;;;;;;;3.33;2.47;;;;;;;;;;5065985;28;20387;-83
2023/05/31 12:55:23;;;;;;;3.70;2.40;;;;;;;;;;5071492;28;20376;-82
2023/05/31 12:57:49;;;;;;;3.30;3.00;;;;;;;;;;5070416;28;20453;-82
2023/05/31 13:00:16;;;;;;;4.85;2.65;;;;;;;;;;5071261;28;20458;-82
2023/05/31 13:02:42;;;;;;;4.50;2.60;;;;;;;;;;5053128;28;20749;-82
2023/05/31 13:05:08;;;;;;;2.80;2.42;;;;;;;;;;5071213;28;20377;-83
2023/05/31 13:07:35;;;;;;;2.95;2.38;;;;;;;;;;5071168;28;20414;-83
2023/05/31 13:10:01;;;;;;;3.40;2.20;;;;;;;;;;5071057;28;20888;-83
2023/05/31 13:12:26;;;;;;;6.18;2.55;;;;;;;;;;5070769;28;20399;-82
2023/05/31 13:14:53;;;;;;;6.05;2.40;;;;;;;;;;5071185;28;20430;-83
2023/05/31 13:17:19;;;;;;;2.88;2.40;;;;;;;;;;5070989;28;20445;-83
2023/05/31 13:19:45;;;;;;;4.47;2.25;;;;;;;;;;5071056;28;20372;-83
2023/05/31 13:22:12;;;;;;;5.43;2.45;;;;;;;;;;5070868;28;20754;-83
2023/05/31 13:24:38;;;;;;;3.85;2.40;;;;;;;;;;5071004;28;20399;-83
2023/05/31 13:27:05;;;;;;;4.15;2.30;;;;;;;;;;5071069;28;20466;-82
2023/05/31 13:29:31;;;;;;;5.32;2.40;;;;;;;;;;5070795;28;20413;-81
2023/05/31 13:31:58;;;;;;;5.15;2.40;;;;;;;;;;5070721;28;20421;-82
2023/05/31 13:34:24;;;;;;;4.40;2.50;;;;;;;;;;5070891;28;20372;-83
2023/05/31 13:36:50;;;;;;;5.40;2.70;;;;;;;;;;5071081;28;20938;-81
2023/05/31 13:39:16;;;;;;;3.85;2.40;;;;;;;;;;5070615;28;20494;-82
2023/05/31 13:41:46;;;;;;;4.07;2.40;;;;;;;;;;5070595;28;20382;-83
2023/05/31 13:44:14;;;;;;;3.53;2.40;;;;;;;;;;5070932;28;20386;-82
2023/05/31 13:46:41;;;;;;;3.38;2.30;;;;;;;;;;5070736;28;20380;-82
2023/05/31 13:49:07;;;;;;;4.60;2.50;;;;;;;;;;5070788;28;20583;-83
2023/05/31 13:51:33;;;;;;;3.60;2.30;;;;;;;;;;5061778;28;20470;-82
2023/05/31 13:53:59;;;;;;;3.87;2.30;;;;;;;;;;5070788;28;20388;-82
2023/05/31 13:56:26;;;;;;;3.83;2.20;;;;;;;;;;5071005;28;20375;-82
2023/05/31 13:58:52;;;;;;;4.32;2.30;;;;;;;;;;5070167;28;20415;-82
2023/05/31 14:01:18;;;;;;;3.80;2.30;;;;;;;;;;5070519;28;20372;-82
2023/05/31 14:03:44;;;;;;;2.67;2.10;;;;;;;;;;5070494;28;20383;-82
2023/05/31 14:06:11;;;;;;;4.13;2.17;;;;;;;;;;5070687;28;20380;-83
2023/05/31 14:08:37;;;;;;;4.50;2.63;;;;;;;;;;5070242;28;20390;-83
2023/05/31 14:11:03;;;;;;;4.97;2.20;;;;;;;;;;5071876;28;20482;-82
2023/05/31 14:13:29;;;;;;;4.40;2.35;;;;;;;;;;5074444;28;20380;-82
2023/05/31 14:15:56;;;;;;;3.73;2.20;;;;;;;;;;5074012;28;20528;-82
2023/05/31 14:18:22;;;;;;;5.00;2.20;;;;;;;;;;5074170;28;20419;-83
2023/05/31 14:20:49;;;;;;;3.00;2.10;;;;;;;;;;5073892;28;20372;-82
2023/05/31 14:23:15;;;;;;;3.63;2.23;;;;;;;;;;5074250;28;20812;-83
2023/05/31 14:25:41;;;;;;;3.58;2.28;;;;;;;;;;5074103;28;20467;-82
2023/05/31 14:28:07;;;;;;;6.22;2.35;;;;;;;;;;5074136;28;20924;-83
2023/05/31 14:30:33;;;;;;;2.78;2.20;;;;;;;;;;5073986;28;20478;-82
2023/05/31 14:32:59;;;;;;;4.03;2.20;;;;;;;;;;5073679;28;20455;-83
2023/05/31 14:35:26;;;;;;;3.35;2.25;;;;;;;;;;5073802;28;20868;-82
2023/05/31 14:37:52;;;;;;;3.17;2.00;;;;;;;;;;5071424;28;20416;-82
2023/05/31 14:40:18;;;;;;;3.03;2.08;;;;;;;;;;5073879;28;20379;-82
2023/05/31 14:42:44;;;;;;;3.33;2.17;;;;;;;;;;5073436;28;20465;-82
2023/05/31 14:45:10;;;;;;;4.97;2.42;;;;;;;;;;5073906;28;20483;-83